Time;durP1;ratioP1;P1;durP2;ratioP2;P2;SDS_P1;SDS_P2;PMS_P1;PMS_P2;Temp;Humidity;BMP_temperature;BMP_pressure;BME280_temperature;BME280_humidity;BME280_pressure;Samples;Min_cycle;Max_cycle;Signal;HPM_P1;HPM_P2
2021/03/20 00:00:07;;;;;;;10.53;8.50;;;;;;;;;;5011103;28;20453;-66
2021/03/20 00:02:33;;;;;;;11.40;8.50;;;;;;;;;;5010866;28;20542;-65
2021/03/20 00:05:00;;;;;;;9.20;8.23;;;;;;;;;;5005773;28;20449;-65
2021/03/20 00:07:27;;;;;;;11.20;8.07;;;;;;;;;;5011366;28;20537;-66
2021/03/20 00:09:54;;;;;;;8.13;7.27;;;;;;;;;;5002143;28;20517;-66
2021/03/20 00:12:21;;;;;;;8.80;8.07;;;;;;;;;;4991927;28;20553;-66
2021/03/20 00:14:47;;;;;;;8.73;7.93;;;;;;;;;;4999236;28;20456;-66
2021/03/20 00:17:14;;;;;;;7.77;7.17;;;;;;;;;;5011099;28;20488;-66
2021/03/20 00:19:41;;;;;;;8.90;8.00;;;;;;;;;;5005000;28;20976;-66
2021/03/20 00:22:07;;;;;;;8.50;7.80;;;;;;;;;;4991444;28;20466;-66
2021/03/20 00:24:35;;;;;;;8.30;7.50;;;;;;;;;;4993939;28;20454;-66
2021/03/20 00:27:01;;;;;;;9.77;8.43;;;;;;;;;;5011144;28;20451;-66
2021/03/20 00:29:28;;;;;;;8.27;7.47;;;;;;;;;;4995433;28;20453;-65
2021/03/20 00:31:55;;;;;;;7.70;7.00;;;;;;;;;;4994826;28;21072;-66
2021/03/20 00:34:21;;;;;;;7.60;7.00;;;;;;;;;;5002266;28;20507;-65
2021/03/20 00:36:48;;;;;;;8.53;7.73;;;;;;;;;;5014054;28;20449;-65
2021/03/20 00:39:14;;;;;;;8.93;8.13;;;;;;;;;;5014575;28;20446;-65
2021/03/20 00:41:43;;;;;;;9.73;8.73;;;;;;;;;;5012812;28;20484;-65
2021/03/20 00:44:10;;;;;;;8.63;7.73;;;;;;;;;;4996748;28;20466;-66
2021/03/20 00:46:37;;;;;;;8.47;7.60;;;;;;;;;;4994769;28;20462;-65
2021/03/20 00:49:04;;;;;;;7.30;6.60;;;;;;;;;;5010594;28;20564;-65
2021/03/20 00:51:31;;;;;;;8.00;7.30;;;;;;;;;;5013941;28;20992;-65
2021/03/20 00:53:57;;;;;;;7.60;6.90;;;;;;;;;;4999187;28;21037;-65
2021/03/20 00:56:24;;;;;;;7.47;6.53;;;;;;;;;;4994448;28;20819;-65
2021/03/20 00:58:52;;;;;;;6.80;6.13;;;;;;;;;;5006987;28;20488;-65
2021/03/20 01:01:21;;;;;;;8.50;7.30;;;;;;;;;;5006168;28;20501;-65
2021/03/20 01:03:47;;;;;;;7.60;6.97;;;;;;;;;;4994203;28;20926;-65
2021/03/20 01:06:15;;;;;;;7.10;6.40;;;;;;;;;;4994348;28;20453;-65
2021/03/20 01:08:41;;;;;;;9.60;6.70;;;;;;;;;;5004007;28;20469;-66
2021/03/20 01:11:09;;;;;;;6.53;5.93;;;;;;;;;;5013958;28;21063;-65
2021/03/20 01:13:36;;;;;;;7.20;6.23;;;;;;;;;;5004188;28;20504;-65
2021/03/20 01:16:03;;;;;;;6.53;5.93;;;;;;;;;;4994363;28;20890;-65
2021/03/20 01:18:30;;;;;;;6.90;6.07;;;;;;;;;;4994357;28;20482;-65
2021/03/20 01:20:57;;;;;;;6.90;5.03;;;;;;;;;;4995053;28;20561;-65
2021/03/20 01:23:23;;;;;;;7.27;5.90;;;;;;;;;;4994379;28;20447;-65
2021/03/20 01:25:50;;;;;;;6.03;5.17;;;;;;;;;;4993698;28;20968;-65
2021/03/20 01:28:20;;;;;;;5.40;4.90;;;;;;;;;;4993927;28;20451;-65
2021/03/20 01:30:47;;;;;;;6.70;5.60;;;;;;;;;;4993720;28;20458;-66
2021/03/20 01:33:14;;;;;;;5.40;4.93;;;;;;;;;;4998009;28;20512;-66
2021/03/20 01:35:41;;;;;;;7.10;4.77;;;;;;;;;;5007652;28;20821;-65
2021/03/20 01:38:08;;;;;;;5.50;5.00;;;;;;;;;;5012565;28;20568;-65
2021/03/20 01:40:37;;;;;;;6.03;5.43;;;;;;;;;;5012988;28;20453;-65
2021/03/20 01:43:04;;;;;;;8.13;4.50;;;;;;;;;;5003143;28;20934;-66
2021/03/20 01:45:31;;;;;;;6.43;5.50;;;;;;;;;;4993447;28;20529;-66
2021/03/20 01:48:00;;;;;;;6.03;5.00;;;;;;;;;;4993826;28;20984;-66
2021/03/20 01:50:31;;;;;;;5.37;4.87;;;;;;;;;;5013137;28;20449;-65
2021/03/20 01:52:59;;;;;;;4.93;4.53;;;;;;;;;;5012945;28;20520;-65
2021/03/20 01:55:27;;;;;;;4.97;4.47;;;;;;;;;;4993650;28;20501;-65
2021/03/20 01:57:56;;;;;;;5.20;4.80;;;;;;;;;;4993312;28;20518;-66
2021/03/20 02:00:25;;;;;;;6.30;5.10;;;;;;;;;;4993236;28;20531;-66
2021/03/20 02:02:52;;;;;;;5.33;4.83;;;;;;;;;;4993103;28;20985;-66
2021/03/20 02:05:21;;;;;;;5.27;4.77;;;;;;;;;;5005819;28;20505;-66
2021/03/20 02:07:48;;;;;;;6.30;4.60;;;;;;;;;;5012769;28;20941;-66
2021/03/20 02:10:15;;;;;;;5.03;4.60;;;;;;;;;;5007106;28;20461;-65
2021/03/20 02:12:44;;;;;;;5.20;4.80;;;;;;;;;;5012902;28;20556;-66
2021/03/20 02:15:15;;;;;;;5.33;5.03;;;;;;;;;;5003148;28;20930;-65
2021/03/20 02:17:46;;;;;;;5.33;4.90;;;;;;;;;;4993359;28;20470;-65
2021/03/20 02:20:41;;;;;;;5.00;4.60;;;;;;;;;;4994202;28;20501;-65
2021/03/20 02:23:25;;;;;;;5.20;4.40;;;;;;;;;;4993239;28;20489;-66
2021/03/20 02:26:13;;;;;;;5.40;4.90;;;;;;;;;;5010244;28;20446;-66
2021/03/20 02:29:10;;;;;;;6.03;4.80;;;;;;;;;;5012642;28;20446;-66
2021/03/20 02:31:42;;;;;;;4.93;4.53;;;;;;;;;;5012087;28;20473;-66
2021/03/20 02:34:15;;;;;;;4.90;4.50;;;;;;;;;;5012406;28;20504;-66
2021/03/20 02:36:45;;;;;;;4.80;4.40;;;;;;;;;;5011363;28;20575;-65
2021/03/20 02:39:18;;;;;;;6.80;4.83;;;;;;;;;;4992660;28;20489;-65
2021/03/20 02:41:48;;;;;;;6.30;4.70;;;;;;;;;;4993473;28;20474;-66
2021/03/20 02:44:16;;;;;;;5.20;4.63;;;;;;;;;;4997066;28;20445;-65
2021/03/20 02:46:47;;;;;;;8.40;4.53;;;;;;;;;;5011606;28;20456;-66
2021/03/20 02:49:20;;;;;;;9.33;4.70;;;;;;;;;;5011451;28;20499;-66
2021/03/20 02:51:50;;;;;;;5.13;4.63;;;;;;;;;;5000828;28;20485;-65
2021/03/20 02:54:20;;;;;;;5.50;4.10;;;;;;;;;;5012389;28;20453;-65
2021/03/20 02:56:49;;;;;;;4.80;4.40;;;;;;;;;;5047516;22;20492;-65
2021/03/20 02:59:16;;;;;;;5.17;4.30;;;;;;;;;;5031984;28;20521;-63
2021/03/20 03:01:45;;;;;;;4.70;3.70;;;;;;;;;;5032125;28;20457;-65
2021/03/20 03:04:14;;;;;;;4.20;3.80;;;;;;;;;;5030889;28;20452;-64
2021/03/20 03:06:44;;;;;;;4.17;3.87;;;;;;;;;;5012674;28;20474;-65
2021/03/20 03:09:13;;;;;;;4.57;4.00;;;;;;;;;;5011804;28;20436;-65
2021/03/20 03:11:41;;;;;;;4.00;3.70;;;;;;;;;;5021272;28;20457;-66
2021/03/20 03:14:15;;;;;;;4.43;4.03;;;;;;;;;;5031611;28;20459;-65
2021/03/20 03:16:44;;;;;;;4.13;3.63;;;;;;;;;;5021806;28;20472;-65
2021/03/20 03:19:13;;;;;;;4.13;3.70;;;;;;;;;;5020655;28;20484;-66
2021/03/20 03:21:41;;;;;;;4.93;4.23;;;;;;;;;;5030086;28;20984;-65
2021/03/20 03:24:10;;;;;;;3.73;3.40;;;;;;;;;;5031752;28;20824;-65
2021/03/20 03:26:38;;;;;;;4.30;3.90;;;;;;;;;;5029512;28;20547;-65
2021/03/20 03:29:07;;;;;;;4.23;3.83;;;;;;;;;;5011663;28;20465;-65
2021/03/20 03:31:36;;;;;;;4.00;3.43;;;;;;;;;;5012269;28;20445;-65
2021/03/20 03:34:05;;;;;;;4.80;3.60;;;;;;;;;;5011692;28;20476;-66
2021/03/20 03:36:35;;;;;;;4.10;3.63;;;;;;;;;;5011388;28;20552;-65
2021/03/20 03:39:06;;;;;;;4.63;4.23;;;;;;;;;;5011405;28;20477;-65
2021/03/20 03:41:35;;;;;;;3.67;3.37;;;;;;;;;;5012042;28;20543;-65
2021/03/20 03:44:02;;;;;;;3.50;3.20;;;;;;;;;;5011991;28;20541;-65
2021/03/20 03:46:32;;;;;;;3.60;3.03;;;;;;;;;;5011197;28;20477;-65
2021/03/20 03:49:00;;;;;;;4.10;3.40;;;;;;;;;;5030064;28;21070;-65
2021/03/20 03:51:28;;;;;;;4.20;3.07;;;;;;;;;;5031237;28;21169;-65
2021/03/20 03:53:55;;;;;;;3.80;3.50;;;;;;;;;;5013953;28;20446;-65
2021/03/20 03:56:36;;;;;;;3.70;3.30;;;;;;;;;;5011131;28;20567;-65
2021/03/20 03:59:09;;;;;;;3.73;3.43;;;;;;;;;;5030261;28;20520;-65
2021/03/20 04:01:41;;;;;;;3.77;3.47;;;;;;;;;;5021928;28;20625;-65
2021/03/20 04:04:11;;;;;;;4.20;3.77;;;;;;;;;;5032923;28;20904;-65
2021/03/20 04:06:49;;;;;;;3.60;3.30;;;;;;;;;;5034868;28;20491;-65
2021/03/20 04:09:22;;;;;;;5.90;4.27;;;;;;;;;;5024462;28;20440;-65
2021/03/20 04:11:54;;;;;;;3.90;3.60;;;;;;;;;;5034733;28;20448;-65
2021/03/20 04:14:24;;;;;;;3.60;3.10;;;;;;;;;;5034516;28;21021;-64
2021/03/20 04:16:57;;;;;;;3.60;3.30;;;;;;;;;;5033138;28;20468;-65
2021/03/20 04:19:28;;;;;;;3.93;3.60;;;;;;;;;;5034511;28;20437;-64
2021/03/20 04:21:58;;;;;;;3.60;3.40;;;;;;;;;;5035087;28;20432;-65
2021/03/20 04:24:27;;;;;;;3.93;3.63;;;;;;;;;;5016472;28;20457;-64
2021/03/20 04:26:58;;;;;;;4.13;3.70;;;;;;;;;;5014522;28;20580;-64
2021/03/20 04:29:31;;;;;;;3.43;3.03;;;;;;;;;;5032580;28;20445;-64
2021/03/20 04:32:00;;;;;;;4.10;3.80;;;;;;;;;;5034716;28;20425;-64
2021/03/20 04:34:31;;;;;;;4.80;3.80;;;;;;;;;;5017009;28;20454;-64
2021/03/20 04:37:00;;;;;;;3.70;3.40;;;;;;;;;;5021370;28;20555;-64
2021/03/20 04:39:28;;;;;;;3.67;3.37;;;;;;;;;;5017571;28;20450;-64
2021/03/20 04:41:55;;;;;;;4.53;3.80;;;;;;;;;;5014474;28;20544;-64
2021/03/20 04:44:22;;;;;;;4.07;3.67;;;;;;;;;;5029970;28;20540;-64
2021/03/20 04:46:49;;;;;;;3.80;3.50;;;;;;;;;;5033927;28;20931;-64
2021/03/20 04:49:18;;;;;;;3.90;3.60;;;;;;;;;;5019806;28;20959;-64
2021/03/20 04:51:47;;;;;;;3.70;3.40;;;;;;;;;;5014627;28;20498;-64
2021/03/20 04:54:19;;;;;;;4.73;4.33;;;;;;;;;;5027330;28;20959;-64
2021/03/20 04:56:48;;;;;;;3.93;3.60;;;;;;;;;;5033899;28;20926;-64
2021/03/20 04:59:33;;;;;;;4.13;3.83;;;;;;;;;;5033597;28;20489;-64
2021/03/20 05:02:02;;;;;;;3.73;3.43;;;;;;;;;;5034081;28;20543;-65
2021/03/20 05:04:32;;;;;;;4.17;3.77;;;;;;;;;;5019639;28;20449;-65
2021/03/20 05:06:59;;;;;;;3.93;3.63;;;;;;;;;;5025385;28;20991;-65
2021/03/20 05:09:27;;;;;;;4.10;3.80;;;;;;;;;;5033825;28;20559;-64
2021/03/20 05:11:56;;;;;;;3.83;3.53;;;;;;;;;;5022631;28;20962;-64
2021/03/20 05:14:26;;;;;;;3.50;3.30;;;;;;;;;;5014179;28;20468;-64
2021/03/20 05:16:53;;;;;;;4.07;3.77;;;;;;;;;;5023642;28;20638;-66
2021/03/20 05:19:22;;;;;;;4.40;4.10;;;;;;;;;;5032239;28;20564;-65
2021/03/20 05:21:50;;;;;;;5.60;4.10;;;;;;;;;;5024319;28;20449;-65
2021/03/20 05:24:18;;;;;;;4.70;4.30;;;;;;;;;;5014148;28;20543;-64
2021/03/20 05:26:45;;;;;;;3.90;3.60;;;;;;;;;;5021165;28;20480;-63
2021/03/20 05:29:11;;;;;;;4.47;4.17;;;;;;;;;;5033491;28;20451;-65
2021/03/20 05:31:38;;;;;;;4.40;4.10;;;;;;;;;;5027114;28;20450;-65
2021/03/20 05:34:06;;;;;;;4.50;3.90;;;;;;;;;;5025019;28;20465;-65
2021/03/20 05:36:34;;;;;;;4.17;3.87;;;;;;;;;;5027792;28;20492;-65
2021/03/20 05:39:00;;;;;;;4.30;3.90;;;;;;;;;;5013391;28;20482;-65
2021/03/20 05:41:33;;;;;;;4.90;4.50;;;;;;;;;;5017114;28;20455;-65
2021/03/20 05:44:09;;;;;;;4.47;4.13;;;;;;;;;;5033199;28;20445;-66
2021/03/20 05:46:38;;;;;;;5.77;3.70;;;;;;;;;;5028363;28;20544;-65
2021/03/20 05:49:17;;;;;;;4.60;4.20;;;;;;;;;;5013409;28;20830;-65
2021/03/20 05:51:55;;;;;;;4.17;3.87;;;;;;;;;;5018140;28;20534;-65
2021/03/20 05:54:45;;;;;;;4.40;3.97;;;;;;;;;;5031579;28;20582;-65
2021/03/20 05:57:17;;;;;;;4.60;4.20;;;;;;;;;;4985879;28;20795;-64
2021/03/20 05:59:50;;;;;;;4.80;4.30;;;;;;;;;;5018027;28;20452;-64
2021/03/20 06:02:22;;;;;;;4.70;3.93;;;;;;;;;;5033118;28;21099;-65
2021/03/20 06:04:49;;;;;;;5.00;3.87;;;;;;;;;;5027868;28;20457;-65
2021/03/20 06:07:37;;;;;;;4.87;3.87;;;;;;;;;;5012716;28;20476;-64
2021/03/20 06:10:11;;;;;;;4.33;3.93;;;;;;;;;;5015880;28;20460;-64
2021/03/20 06:12:45;;;;;;;4.33;4.00;;;;;;;;;;5027732;28;20447;-64
2021/03/20 06:15:13;;;;;;;4.17;3.83;;;;;;;;;;5027844;28;20479;-65
2021/03/20 06:17:55;;;;;;;4.00;3.70;;;;;;;;;;5027876;28;20486;-64
2021/03/20 06:20:30;;;;;;;5.30;4.57;;;;;;;;;;5013576;28;20438;-64
2021/03/20 06:23:04;;;;;;;5.77;4.13;;;;;;;;;;5018181;28;21007;-66
2021/03/20 06:25:57;;;;;;;4.70;3.90;;;;;;;;;;5032679;28;20473;-64
2021/03/20 06:28:26;;;;;;;6.03;4.80;;;;;;;;;;5022755;28;20445;-65
2021/03/20 06:30:57;;;;;;;4.27;3.83;;;;;;;;;;5028303;28;20470;-64
2021/03/20 06:33:28;;;;;;;5.20;4.13;;;;;;;;;;5023298;28;20874;-65
2021/03/20 06:35:58;;;;;;;4.70;4.30;;;;;;;;;;5012454;28;20996;-64
2021/03/20 06:38:30;;;;;;;4.50;4.10;;;;;;;;;;5021066;28;20481;-65
2021/03/20 06:41:00;;;;;;;4.53;4.00;;;;;;;;;;5032335;28;20980;-65
2021/03/20 06:43:30;;;;;;;4.37;4.00;;;;;;;;;;5030696;28;20436;-64
2021/03/20 06:45:57;;;;;;;4.80;4.20;;;;;;;;;;5032432;28;20468;-64
2021/03/20 06:48:29;;;;;;;6.67;5.00;;;;;;;;;;5024574;28;20450;-64
2021/03/20 06:50:57;;;;;;;4.77;4.27;;;;;;;;;;5025524;28;20590;-65
2021/03/20 06:53:30;;;;;;;4.73;4.33;;;;;;;;;;5028187;28;20441;-64
2021/03/20 06:55:58;;;;;;;4.33;3.93;;;;;;;;;;5020343;28;20917;-63
2021/03/20 06:58:27;;;;;;;4.93;4.53;;;;;;;;;;5020726;28;21044;-64
2021/03/20 07:00:54;;;;;;;3.40;3.00;;;;;;;;;;5023216;28;20477;-66
2021/03/20 07:03:31;;;;;;;9.87;3.30;;;;;;;;;;5012797;28;20865;-65
2021/03/20 07:06:04;;;;;;;3.60;3.30;;;;;;;;;;5025972;28;20469;-65
2021/03/20 07:08:34;;;;;;;4.30;3.90;;;;;;;;;;5021512;28;20530;-65
2021/03/20 07:11:02;;;;;;;3.77;2.77;;;;;;;;;;5013928;28;20455;-65
2021/03/20 07:13:30;;;;;;;4.40;3.60;;;;;;;;;;5022090;28;21063;-64
2021/03/20 07:16:05;;;;;;;5.43;4.07;;;;;;;;;;5032789;28;20547;-64
2021/03/20 07:18:33;;;;;;;4.20;3.77;;;;;;;;;;5039051;28;20563;-64
2021/03/20 07:21:00;;;;;;;4.00;3.63;;;;;;;;;;5043117;28;20544;-64
2021/03/20 07:23:27;;;;;;;4.40;4.00;;;;;;;;;;5031720;28;20488;-64
2021/03/20 07:25:54;;;;;;;4.03;3.73;;;;;;;;;;5042115;28;20599;-64
2021/03/20 07:28:22;;;;;;;4.37;3.97;;;;;;;;;;5040980;28;20455;-64
2021/03/20 07:30:52;;;;;;;4.60;3.77;;;;;;;;;;5042871;28;20512;-64
2021/03/20 07:33:29;;;;;;;4.10;3.80;;;;;;;;;;5042702;28;20448;-65
2021/03/20 07:35:57;;;;;;;5.03;4.10;;;;;;;;;;5045170;28;21263;-64
2021/03/20 07:38:26;;;;;;;4.43;4.07;;;;;;;;;;5045254;28;20480;-64
2021/03/20 07:41:05;;;;;;;4.30;3.90;;;;;;;;;;5047249;28;20444;-64
2021/03/20 07:43:31;;;;;;;4.57;4.13;;;;;;;;;;5045792;28;20444;-64
2021/03/20 07:46:07;;;;;;;4.10;3.77;;;;;;;;;;5047639;28;20468;-64
2021/03/20 07:48:34;;;;;;;4.07;3.67;;;;;;;;;;5042299;28;20455;-64
2021/03/20 07:51:02;;;;;;;5.57;3.50;;;;;;;;;;5041872;28;20487;-64
2021/03/20 07:53:28;;;;;;;3.90;3.60;;;;;;;;;;5034654;28;20453;-64
2021/03/20 07:55:57;;;;;;;4.00;3.70;;;;;;;;;;5031734;28;20481;-64
2021/03/20 07:58:25;;;;;;;4.00;3.60;;;;;;;;;;5036913;28;20484;-64
2021/03/20 08:00:55;;;;;;;4.37;3.97;;;;;;;;;;5035536;28;20452;-63
2021/03/20 08:03:23;;;;;;;4.13;3.83;;;;;;;;;;5027017;28;20529;-64
2021/03/20 08:05:50;;;;;;;3.73;3.10;;;;;;;;;;5015759;28;20564;-64
2021/03/20 08:08:19;;;;;;;3.97;3.57;;;;;;;;;;5022950;28;20445;-64
2021/03/20 08:10:47;;;;;;;3.70;3.27;;;;;;;;;;5035687;28;20963;-64
2021/03/20 08:13:25;;;;;;;4.43;3.57;;;;;;;;;;5029117;28;20984;-64
2021/03/20 08:15:55;;;;;;;3.57;3.20;;;;;;;;;;5016132;28;20548;-64
2021/03/20 08:18:24;;;;;;;5.37;3.70;;;;;;;;;;5016384;28;20900;-64
2021/03/20 08:21:11;;;;;;;3.60;3.30;;;;;;;;;;5019790;28;20953;-64
2021/03/20 08:23:54;;;;;;;3.93;3.60;;;;;;;;;;5006453;28;20452;-64
2021/03/20 08:26:26;;;;;;;3.90;3.57;;;;;;;;;;5035278;28;20551;-64
2021/03/20 08:28:56;;;;;;;4.03;3.67;;;;;;;;;;5025335;28;20531;-64
2021/03/20 08:31:43;;;;;;;4.10;3.30;;;;;;;;;;5026630;28;20461;-64
2021/03/20 08:34:34;;;;;;;3.90;3.50;;;;;;;;;;5025175;28;20540;-65
2021/03/20 08:37:15;;;;;;;3.87;3.13;;;;;;;;;;4959507;28;20504;-64
2021/03/20 08:39:52;;;;;;;5.47;3.60;;;;;;;;;;5028128;28;20534;-64
2021/03/20 08:42:23;;;;;;;5.87;4.20;;;;;;;;;;5034566;28;20498;-64
2021/03/20 08:44:55;;;;;;;3.80;3.33;;;;;;;;;;5017476;28;20457;-64
2021/03/20 08:47:42;;;;;;;3.50;3.20;;;;;;;;;;5014705;28;20491;-61
2021/03/20 08:50:16;;;;;;;3.60;1.87;;;;;;;;;;5021996;28;20544;-65
2021/03/20 08:52:49;;;;;;;6.93;2.07;;;;;;;;;;5034244;28;20932;-62
2021/03/20 08:55:36;;;;;;;2.97;1.70;;;;;;;;;;5028543;28;20550;-63
2021/03/20 08:58:07;;;;;;;2.93;1.97;;;;;;;;;;5027587;28;20482;-62
2021/03/20 09:00:36;;;;;;;4.77;1.87;;;;;;;;;;5028898;28;20522;-62
2021/03/20 09:03:06;;;;;;;3.13;1.67;;;;;;;;;;5041513;22;20503;-68
2021/03/20 09:05:34;;;;;;;2.07;1.50;;;;;;;;;;5026772;28;20456;-68
2021/03/20 09:08:04;;;;;;;2.17;1.40;;;;;;;;;;5023754;28;20448;-70
2021/03/20 09:10:32;;;;;;;3.10;1.90;;;;;;;;;;5017641;28;20991;-69
2021/03/20 09:13:02;;;;;;;2.57;1.67;;;;;;;;;;5023362;28;20900;-68
2021/03/20 09:15:31;;;;;;;2.63;1.37;;;;;;;;;;5013475;28;20453;-67
2021/03/20 09:17:59;;;;;;;2.30;1.50;;;;;;;;;;5022964;28;20523;-69
2021/03/20 09:20:30;;;;;;;2.40;1.47;;;;;;;;;;5024297;28;20540;-69
2021/03/20 09:22:57;;;;;;;3.40;1.73;;;;;;;;;;5023424;28;20556;-70
2021/03/20 09:25:29;;;;;;;2.10;1.60;;;;;;;;;;5026988;28;20531;-69
2021/03/20 09:28:12;;;;;;;1.80;1.30;;;;;;;;;;5016780;28;20910;-70
2021/03/20 09:30:40;;;;;;;3.07;1.40;;;;;;;;;;5013553;28;20446;-69
2021/03/20 09:33:14;;;;;;;1.70;1.23;;;;;;;;;;5016343;28;20468;-69
2021/03/20 09:35:42;;;;;;;2.53;1.40;;;;;;;;;;5033412;28;20514;-70
2021/03/20 09:38:09;;;;;;;2.43;1.67;;;;;;;;;;5025969;28;20940;-69
2021/03/20 09:40:49;;;;;;;2.20;1.50;;;;;;;;;;5041337;28;20455;-69
2021/03/20 09:43:17;;;;;;;2.23;1.60;;;;;;;;;;5018073;28;20568;-69
2021/03/20 09:45:45;;;;;;;2.90;1.70;;;;;;;;;;5013040;28;20457;-68
2021/03/20 09:48:31;;;;;;;3.37;1.80;;;;;;;;;;5016147;28;20557;-67
2021/03/20 09:50:58;;;;;;;3.07;2.40;;;;;;;;;;5012939;28;20457;-63
2021/03/20 09:53:35;;;;;;;2.70;2.07;;;;;;;;;;5013579;28;20474;-65
2021/03/20 09:56:26;;;;;;;3.80;1.80;;;;;;;;;;5012325;28;20895;-68
2021/03/20 09:58:53;;;;;;;3.37;3.07;;;;;;;;;;5013888;28;20539;-66
2021/03/20 10:01:22;;;;;;;3.60;3.30;;;;;;;;;;5011827;28;20450;-66
2021/03/20 10:03:52;;;;;;;4.03;3.73;;;;;;;;;;5011905;28;20904;-65
2021/03/20 10:06:34;;;;;;;4.33;3.73;;;;;;;;;;5013656;28;20523;-65
2021/03/20 10:09:13;;;;;;;4.10;3.70;;;;;;;;;;5010762;28;20561;-64
2021/03/20 10:11:41;;;;;;;4.70;3.70;;;;;;;;;;5007741;28;20952;-65
2021/03/20 10:14:23;;;;;;;3.80;3.50;;;;;;;;;;5012894;28;20805;-65
2021/03/20 10:17:04;;;;;;;5.10;4.57;;;;;;;;;;5012519;28;20452;-65
2021/03/20 10:19:32;;;;;;;3.90;3.60;;;;;;;;;;5010312;28;20551;-64
2021/03/20 10:22:00;;;;;;;6.50;3.90;;;;;;;;;;5011364;28;20469;-65
2021/03/20 10:24:27;;;;;;;4.40;3.90;;;;;;;;;;4993038;28;20454;-64
2021/03/20 10:26:59;;;;;;;4.80;4.20;;;;;;;;;;5011090;28;20545;-65
2021/03/20 10:29:28;;;;;;;5.57;4.07;;;;;;;;;;5011546;28;20442;-64
2021/03/20 10:31:56;;;;;;;5.13;4.30;;;;;;;;;;5010791;28;20824;-65
2021/03/20 10:34:24;;;;;;;4.80;4.27;;;;;;;;;;5012150;28;20540;-65
2021/03/20 10:37:03;;;;;;;5.33;4.50;;;;;;;;;;5006890;28;20988;-65
2021/03/20 10:39:31;;;;;;;5.80;4.40;;;;;;;;;;5015756;28;20844;-64
2021/03/20 10:42:01;;;;;;;4.87;4.40;;;;;;;;;;5025199;28;20457;-65
2021/03/20 10:44:30;;;;;;;4.77;4.30;;;;;;;;;;5011352;28;20457;-65
2021/03/20 10:47:02;;;;;;;4.97;4.43;;;;;;;;;;5011502;28;20453;-65
2021/03/20 10:49:32;;;;;;;5.43;4.93;;;;;;;;;;5011331;28;20537;-65
2021/03/20 10:51:59;;;;;;;4.73;4.33;;;;;;;;;;5011370;28;20452;-65
2021/03/20 10:54:30;;;;;;;7.03;5.00;;;;;;;;;;5011610;28;20472;-65
2021/03/20 10:57:01;;;;;;;4.73;4.27;;;;;;;;;;5010905;28;20442;-66
2021/03/20 10:59:31;;;;;;;5.30;4.83;;;;;;;;;;5012128;28;20481;-66
2021/03/20 11:01:58;;;;;;;5.27;4.77;;;;;;;;;;5015160;28;20464;-66
2021/03/20 11:04:29;;;;;;;5.30;4.90;;;;;;;;;;5011899;28;20492;-66
2021/03/20 11:06:58;;;;;;;5.40;5.00;;;;;;;;;;5011651;28;20788;-66
2021/03/20 11:09:25;;;;;;;5.97;5.07;;;;;;;;;;5011208;28;21054;-66
2021/03/20 11:11:59;;;;;;;6.00;5.40;;;;;;;;;;5008484;28;20527;-65
2021/03/20 11:14:26;;;;;;;6.17;5.30;;;;;;;;;;5011905;28;20444;-66
2021/03/20 11:16:55;;;;;;;4.90;4.50;;;;;;;;;;5011305;28;20479;-66
2021/03/20 11:19:28;;;;;;;5.33;4.83;;;;;;;;;;5012824;28;20465;-66
2021/03/20 11:22:00;;;;;;;5.10;4.60;;;;;;;;;;5011536;28;21044;-66
2021/03/20 11:24:31;;;;;;;5.40;5.00;;;;;;;;;;5007751;28;20450;-64
2021/03/20 11:26:57;;;;;;;5.53;5.13;;;;;;;;;;5010697;28;20458;-65
2021/03/20 11:29:25;;;;;;;5.70;5.23;;;;;;;;;;5011657;28;20442;-65
2021/03/20 11:31:54;;;;;;;5.20;4.70;;;;;;;;;;5011167;28;20542;-64
2021/03/20 11:34:25;;;;;;;4.80;4.20;;;;;;;;;;5011180;28;20472;-64
2021/03/20 11:36:53;;;;;;;5.90;4.60;;;;;;;;;;5015061;28;20452;-65
2021/03/20 11:39:20;;;;;;;5.10;4.60;;;;;;;;;;5012697;28;20485;-64
2021/03/20 11:41:54;;;;;;;5.30;4.53;;;;;;;;;;5011132;28;20977;-64
2021/03/20 11:44:24;;;;;;;5.77;5.20;;;;;;;;;;5031198;28;20429;-64
2021/03/20 11:46:52;;;;;;;6.50;5.20;;;;;;;;;;5021368;28;20537;-64
2021/03/20 11:49:23;;;;;;;4.83;4.43;;;;;;;;;;5011181;28;20450;-64
2021/03/20 11:51:50;;;;;;;5.83;5.20;;;;;;;;;;5010802;28;20466;-63
2021/03/20 11:54:21;;;;;;;5.60;5.10;;;;;;;;;;5030873;28;20563;-65
2021/03/20 11:56:53;;;;;;;5.43;4.93;;;;;;;;;;5022968;28;20450;-65
2021/03/20 11:59:32;;;;;;;5.60;4.90;;;;;;;;;;5018554;28;20568;-64
2021/03/20 12:01:58;;;;;;;6.93;5.40;;;;;;;;;;4991879;28;20525;-65
2021/03/20 12:04:26;;;;;;;6.97;5.33;;;;;;;;;;5004040;28;20811;-64
2021/03/20 12:06:53;;;;;;;6.23;5.50;;;;;;;;;;5022143;28;20457;-64
2021/03/20 12:09:33;;;;;;;6.20;5.70;;;;;;;;;;5015259;28;20444;-64
2021/03/20 12:12:00;;;;;;;6.10;5.60;;;;;;;;;;5030826;28;20456;-64
2021/03/20 12:14:45;;;;;;;6.07;5.57;;;;;;;;;;5020035;28;20454;-65
2021/03/20 12:17:16;;;;;;;6.03;5.50;;;;;;;;;;5011196;28;20928;-64
2021/03/20 12:19:59;;;;;;;7.33;5.50;;;;;;;;;;5011726;28;20564;-64
2021/03/20 12:22:31;;;;;;;5.70;5.20;;;;;;;;;;5014962;28;20500;-64
2021/03/20 12:25:01;;;;;;;6.50;6.00;;;;;;;;;;5017781;28;20452;-64
2021/03/20 12:27:30;;;;;;;6.60;5.93;;;;;;;;;;5018442;28;20533;-64
2021/03/20 12:29:59;;;;;;;6.63;6.13;;;;;;;;;;5014004;28;20449;-64
2021/03/20 12:32:32;;;;;;;6.53;5.93;;;;;;;;;;5014397;28;20473;-64
2021/03/20 12:35:13;;;;;;;6.70;6.10;;;;;;;;;;5021323;28;20854;-64
2021/03/20 12:37:40;;;;;;;7.40;6.80;;;;;;;;;;5025318;28;20460;-64
2021/03/20 12:40:07;;;;;;;6.70;6.10;;;;;;;;;;5012919;28;20508;-64
2021/03/20 12:42:34;;;;;;;7.33;6.63;;;;;;;;;;4996805;28;20993;-64
2021/03/20 12:45:01;;;;;;;7.63;7.03;;;;;;;;;;5034463;28;20815;-64
2021/03/20 12:47:31;;;;;;;7.70;6.50;;;;;;;;;;5014387;28;20533;-64
2021/03/20 12:49:57;;;;;;;7.07;6.47;;;;;;;;;;5014610;28;20794;-64
2021/03/20 12:52:24;;;;;;;6.93;6.43;;;;;;;;;;5019852;28;20507;-65
2021/03/20 12:54:55;;;;;;;7.20;6.50;;;;;;;;;;5014583;28;20549;-64
2021/03/20 12:57:22;;;;;;;7.30;6.73;;;;;;;;;;5013907;28;20524;-64
2021/03/20 12:59:50;;;;;;;7.30;6.70;;;;;;;;;;5014443;28;20532;-64
2021/03/20 13:02:16;;;;;;;7.10;6.30;;;;;;;;;;5013779;28;20485;-65
2021/03/20 13:04:43;;;;;;;7.30;6.70;;;;;;;;;;5013485;28;21022;-64
2021/03/20 13:07:10;;;;;;;8.13;7.20;;;;;;;;;;5012992;28;20511;-64
2021/03/20 13:09:37;;;;;;;8.10;7.50;;;;;;;;;;5013755;28;20452;-64
2021/03/20 13:12:04;;;;;;;9.10;7.87;;;;;;;;;;5024255;28;21000;-64
2021/03/20 13:14:31;;;;;;;7.00;6.50;;;;;;;;;;5014004;28;20456;-64
2021/03/20 13:16:58;;;;;;;12.70;7.03;;;;;;;;;;5024416;28;20459;-64
2021/03/20 13:19:25;;;;;;;10.10;6.93;;;;;;;;;;5013446;28;20576;-65
2021/03/20 13:21:51;;;;;;;7.70;7.10;;;;;;;;;;5014034;28;20463;-64
2021/03/20 13:24:18;;;;;;;7.67;7.10;;;;;;;;;;5013510;28;20949;-64
2021/03/20 13:26:45;;;;;;;7.90;7.20;;;;;;;;;;5002335;28;20489;-64
2021/03/20 13:29:11;;;;;;;7.83;7.03;;;;;;;;;;5005012;28;20516;-64
2021/03/20 13:31:38;;;;;;;7.13;6.63;;;;;;;;;;5013617;28;20541;-64
2021/03/20 13:34:06;;;;;;;8.20;7.50;;;;;;;;;;5022968;28;20991;-64
2021/03/20 13:36:32;;;;;;;8.47;7.67;;;;;;;;;;5023344;28;20820;-64
2021/03/20 13:39:00;;;;;;;8.17;7.57;;;;;;;;;;5013238;28;20911;-64
2021/03/20 13:41:26;;;;;;;8.13;7.53;;;;;;;;;;5016402;28;20460;-64
2021/03/20 13:43:53;;;;;;;8.40;7.60;;;;;;;;;;5031072;28;20477;-64
2021/03/20 13:46:20;;;;;;;8.00;7.30;;;;;;;;;;5025895;28;20456;-64
2021/03/20 13:48:47;;;;;;;8.10;7.50;;;;;;;;;;5013110;28;20569;-65
2021/03/20 13:51:15;;;;;;;7.87;7.17;;;;;;;;;;5025204;28;20525;-64
2021/03/20 13:53:47;;;;;;;9.10;8.30;;;;;;;;;;5025244;28;20533;-63
2021/03/20 13:56:16;;;;;;;7.90;7.30;;;;;;;;;;5012444;28;20446;-64
2021/03/20 13:58:45;;;;;;;9.00;8.30;;;;;;;;;;5026026;28;20610;-64
2021/03/20 14:01:13;;;;;;;8.77;7.80;;;;;;;;;;5022901;28;20449;-64
2021/03/20 14:04:01;;;;;;;8.37;7.60;;;;;;;;;;5012707;28;20491;-64
2021/03/20 14:06:31;;;;;;;7.97;7.27;;;;;;;;;;5011010;28;20453;-64
2021/03/20 14:08:59;;;;;;;9.17;8.47;;;;;;;;;;5012363;28;20832;-64
2021/03/20 14:11:30;;;;;;;8.57;7.93;;;;;;;;;;5008675;28;20976;-64
2021/03/20 14:14:01;;;;;;;8.30;7.57;;;;;;;;;;5020698;28;20485;-64
2021/03/20 14:16:29;;;;;;;8.40;7.70;;;;;;;;;;5023335;28;20457;-64
2021/03/20 14:18:57;;;;;;;11.40;8.30;;;;;;;;;;5009501;28;20495;-64
2021/03/20 14:21:25;;;;;;;8.63;7.93;;;;;;;;;;5011609;28;20461;-64
2021/03/20 14:23:54;;;;;;;10.90;8.63;;;;;;;;;;5017882;28;20483;-64
2021/03/20 14:26:23;;;;;;;8.90;8.10;;;;;;;;;;5013917;28;20854;-64
2021/03/20 14:28:51;;;;;;;8.57;7.67;;;;;;;;;;5018252;28;20512;-64
2021/03/20 14:31:22;;;;;;;8.57;7.23;;;;;;;;;;5013804;28;20470;-64
2021/03/20 14:33:52;;;;;;;8.77;8.07;;;;;;;;;;5018357;28;20516;-64
2021/03/20 14:36:20;;;;;;;8.73;8.03;;;;;;;;;;5021368;28;20824;-64
2021/03/20 14:38:48;;;;;;;8.67;7.97;;;;;;;;;;5009742;28;20488;-64
2021/03/20 14:41:17;;;;;;;7.83;7.13;;;;;;;;;;5016969;28;20456;-64
2021/03/20 14:43:45;;;;;;;8.87;7.97;;;;;;;;;;5027935;28;20493;-63
2021/03/20 14:46:16;;;;;;;9.17;8.27;;;;;;;;;;5018198;28;20503;-64
2021/03/20 14:48:43;;;;;;;7.80;7.20;;;;;;;;;;5028206;28;20465;-64
2021/03/20 14:51:11;;;;;;;8.40;7.70;;;;;;;;;;5022899;28;20464;-64
2021/03/20 14:53:39;;;;;;;9.00;8.30;;;;;;;;;;5028375;28;20488;-64
2021/03/20 14:56:10;;;;;;;9.30;8.40;;;;;;;;;;5020040;28;20461;-64
2021/03/20 14:58:42;;;;;;;8.23;7.63;;;;;;;;;;5020049;28;20489;-64
2021/03/20 15:01:16;;;;;;;9.57;8.70;;;;;;;;;;5014484;28;20798;-64